sensor_id;sensor_type;location;lat;lon;timestamp;P1;durP1;ratioP1;P2;durP2;ratioP2
10232;SDS011;5161;48.174;11.756;2023-11-21T00:02:24;4.00;;;2.33;;
10232;SDS011;5161;48.174;11.756;2023-11-21T00:04:50;5.33;;;2.50;;
10232;SDS011;5161;48.174;11.756;2023-11-21T00:07:17;2.73;;;1.63;;
10232;SDS011;5161;48.174;11.756;2023-11-21T00:09:42;5.13;;;2.20;;
10232;SDS011;5161;48.174;11.756;2023-11-21T00:12:08;7.57;;;2.30;;
10232;SDS011;5161;48.174;11.756;2023-11-21T00:14:38;5.90;;;2.57;;
10232;SDS011;5161;48.174;11.756;2023-11-21T00:17:04;3.90;;;2.40;;
10232;SDS011;5161;48.174;11.756;2023-11-21T00:19:31;5.20;;;2.57;;
10232;SDS011;5161;48.174;11.756;2023-11-21T00:21:58;5.57;;;2.63;;
10232;SDS011;5161;48.174;11.756;2023-11-21T00:24:24;6.40;;;2.30;;
10232;SDS011;5161;48.174;11.756;2023-11-21T00:26:50;7.47;;;2.57;;
10232;SDS011;5161;48.174;11.756;2023-11-21T00:29:16;5.50;;;2.37;;
10232;SDS011;5161;48.174;11.756;2023-11-21T00:31:42;5.57;;;2.10;;
10232;SDS011;5161;48.174;11.756;2023-11-21T00:34:10;5.67;;;2.00;;
10232;SDS011;5161;48.174;11.756;2023-11-21T00:36:36;5.13;;;2.00;;
10232;SDS011;5161;48.174;11.756;2023-11-21T00:39:02;4.00;;;1.70;;
10232;SDS011;5161;48.174;11.756;2023-11-21T00:41:28;3.13;;;1.53;;
10232;SDS011;5161;48.174;11.756;2023-11-21T00:43:54;2.10;;;1.30;;
10232;SDS011;5161;48.174;11.756;2023-11-21T00:46:20;1.43;;;1.30;;
10232;SDS011;5161;48.174;11.756;2023-11-21T00:48:46;2.37;;;1.30;;
10232;SDS011;5161;48.174;11.756;2023-11-21T00:51:11;1.70;;;1.27;;
10232;SDS011;5161;48.174;11.756;2023-11-21T00:53:37;2.20;;;1.30;;
10232;SDS011;5161;48.174;11.756;2023-11-21T00:56:03;1.67;;;1.40;;
10232;SDS011;5161;48.174;11.756;2023-11-21T00:58:28;2.93;;;1.37;;
10232;SDS011;5161;48.174;11.756;2023-11-21T01:00:55;2.37;;;1.30;;
10232;SDS011;5161;48.174;11.756;2023-11-21T01:03:21;1.40;;;1.30;;
10232;SDS011;5161;48.174;11.756;2023-11-21T01:05:46;3.23;;;1.50;;
10232;SDS011;5161;48.174;11.756;2023-11-21T01:08:14;3.83;;;1.47;;
10232;SDS011;5161;48.174;11.756;2023-11-21T01:10:40;3.30;;;1.30;;
10232;SDS011;5161;48.174;11.756;2023-11-21T01:13:06;1.43;;;1.20;;
10232;SDS011;5161;48.174;11.756;2023-11-21T01:15:32;2.33;;;1.30;;
10232;SDS011;5161;48.174;11.756;2023-11-21T01:17:58;1.50;;;1.40;;
10232;SDS011;5161;48.174;11.756;2023-11-21T01:20:24;2.60;;;1.20;;
10232;SDS011;5161;48.174;11.756;2023-11-21T01:22:50;2.43;;;1.40;;
10232;SDS011;5161;48.174;11.756;2023-11-21T01:25:15;2.20;;;1.33;;
10232;SDS011;5161;48.174;11.756;2023-11-21T01:27:41;1.93;;;1.30;;
10232;SDS011;5161;48.174;11.756;2023-11-21T01:30:08;2.00;;;1.30;;
10232;SDS011;5161;48.174;11.756;2023-11-21T01:32:35;3.20;;;1.67;;
10232;SDS011;5161;48.174;11.756;2023-11-21T01:35:01;1.80;;;1.50;;
10232;SDS011;5161;48.174;11.756;2023-11-21T01:37:27;2.80;;;1.60;;
10232;SDS011;5161;48.174;11.756;2023-11-21T01:39:53;4.37;;;1.70;;
10232;SDS011;5161;48.174;11.756;2023-11-21T01:42:22;2.70;;;1.60;;
10232;SDS011;5161;48.174;11.756;2023-11-21T01:44:48;4.37;;;1.67;;
10232;SDS011;5161;48.174;11.756;2023-11-21T01:47:14;2.70;;;1.70;;
10232;SDS011;5161;48.174;11.756;2023-11-21T01:49:40;4.33;;;1.70;;
10232;SDS011;5161;48.174;11.756;2023-11-21T01:52:09;2.93;;;1.90;;
10232;SDS011;5161;48.174;11.756;2023-11-21T01:54:36;2.77;;;1.70;;
10232;SDS011;5161;48.174;11.756;2023-11-21T01:57:02;3.40;;;1.83;;
10232;SDS011;5161;48.174;11.756;2023-11-21T01:59:34;3.17;;;1.90;;
10232;SDS011;5161;48.174;11.756;2023-11-21T02:02:02;3.17;;;1.90;;
10232;SDS011;5161;48.174;11.756;2023-11-21T02:04:34;3.07;;;1.80;;
10232;SDS011;5161;48.174;11.756;2023-11-21T02:07:01;2.60;;;1.67;;
10232;SDS011;5161;48.174;11.756;2023-11-21T02:09:30;3.67;;;1.97;;
10232;SDS011;5161;48.174;11.756;2023-11-21T02:12:03;3.80;;;1.80;;
10232;SDS011;5161;48.174;11.756;2023-11-21T02:14:29;6.10;;;2.13;;
10232;SDS011;5161;48.174;11.756;2023-11-21T02:16:55;3.10;;;2.10;;
10232;SDS011;5161;48.174;11.756;2023-11-21T02:19:26;4.63;;;1.90;;
10232;SDS011;5161;48.174;11.756;2023-11-21T02:21:52;4.90;;;1.90;;
10232;SDS011;5161;48.174;11.756;2023-11-21T02:24:21;3.77;;;2.00;;
10232;SDS011;5161;48.174;11.756;2023-11-21T02:26:50;5.37;;;2.07;;
10232;SDS011;5161;48.174;11.756;2023-11-21T02:29:20;4.87;;;2.30;;
10232;SDS011;5161;48.174;11.756;2023-11-21T02:31:53;4.83;;;2.20;;
10232;SDS011;5161;48.174;11.756;2023-11-21T02:34:20;5.27;;;1.70;;
10232;SDS011;5161;48.174;11.756;2023-11-21T02:36:46;4.60;;;1.80;;
10232;SDS011;5161;48.174;11.756;2023-11-21T02:39:14;2.60;;;1.70;;
10232;SDS011;5161;48.174;11.756;2023-11-21T02:41:41;2.90;;;1.80;;
10232;SDS011;5161;48.174;11.756;2023-11-21T02:44:07;4.57;;;1.77;;
10232;SDS011;5161;48.174;11.756;2023-11-21T02:46:35;4.03;;;1.97;;
10232;SDS011;5161;48.174;11.756;2023-11-21T02:49:04;3.57;;;1.80;;
10232;SDS011;5161;48.174;11.756;2023-11-21T02:51:31;4.00;;;1.70;;
10232;SDS011;5161;48.174;11.756;2023-11-21T02:53:57;2.93;;;1.60;;
10232;SDS011;5161;48.174;11.756;2023-11-21T02:56:27;4.93;;;1.70;;
10232;SDS011;5161;48.174;11.756;2023-11-21T02:58:56;3.10;;;1.60;;
10232;SDS011;5161;48.174;11.756;2023-11-21T03:01:22;3.77;;;1.70;;
10232;SDS011;5161;48.174;11.756;2023-11-21T03:03:52;2.83;;;1.47;;
10232;SDS011;5161;48.174;11.756;2023-11-21T03:06:18;3.33;;;1.70;;
10232;SDS011;5161;48.174;11.756;2023-11-21T03:08:44;1.90;;;1.60;;
10232;SDS011;5161;48.174;11.756;2023-11-21T03:11:10;1.87;;;1.53;;
10232;SDS011;5161;48.174;11.756;2023-11-21T03:13:35;2.27;;;1.60;;
10232;SDS011;5161;48.174;11.756;2023-11-21T03:16:01;2.13;;;1.40;;
10232;SDS011;5161;48.174;11.756;2023-11-21T03:18:27;2.70;;;1.30;;
10232;SDS011;5161;48.174;11.756;2023-11-21T03:20:54;3.47;;;1.43;;
10232;SDS011;5161;48.174;11.756;2023-11-21T03:23:19;2.23;;;1.47;;
10232;SDS011;5161;48.174;11.756;2023-11-21T03:25:45;3.10;;;1.43;;
10232;SDS011;5161;48.174;11.756;2023-11-21T03:28:11;4.17;;;1.70;;
10232;SDS011;5161;48.174;11.756;2023-11-21T03:30:36;3.93;;;1.60;;
10232;SDS011;5161;48.174;11.756;2023-11-21T03:33:02;3.00;;;1.27;;
10232;SDS011;5161;48.174;11.756;2023-11-21T03:35:27;2.87;;;1.40;;
10232;SDS011;5161;48.174;11.756;2023-11-21T03:37:53;1.90;;;1.30;;
10232;SDS011;5161;48.174;11.756;2023-11-21T03:40:19;1.90;;;1.70;;
10232;SDS011;5161;48.174;11.756;2023-11-21T03:42:46;5.30;;;1.43;;
10232;SDS011;5161;48.174;11.756;2023-11-21T03:45:12;2.33;;;1.40;;
10232;SDS011;5161;48.174;11.756;2023-11-21T03:47:37;2.37;;;1.77;;
10232;SDS011;5161;48.174;11.756;2023-11-21T03:50:04;2.27;;;1.60;;
10232;SDS011;5161;48.174;11.756;2023-11-21T03:52:30;5.93;;;2.00;;
10232;SDS011;5161;48.174;11.756;2023-11-21T03:54:56;3.00;;;1.70;;
10232;SDS011;5161;48.174;11.756;2023-11-21T03:57:21;4.70;;;1.73;;
10232;SDS011;5161;48.174;11.756;2023-11-21T03:59:47;1.73;;;1.43;;
10232;SDS011;5161;48.174;11.756;2023-11-21T04:02:12;4.13;;;1.70;;
10232;SDS011;5161;48.174;11.756;2023-11-21T04:04:38;2.70;;;1.93;;
10232;SDS011;5161;48.174;11.756;2023-11-21T04:07:04;5.47;;;1.70;;
10232;SDS011;5161;48.174;11.756;2023-11-21T04:09:30;4.80;;;2.07;;
10232;SDS011;5161;48.174;11.756;2023-11-21T04:11:55;2.47;;;1.70;;
10232;SDS011;5161;48.174;11.756;2023-11-21T04:14:22;2.67;;;1.60;;
10232;SDS011;5161;48.174;11.756;2023-11-21T04:16:48;2.67;;;1.60;;
10232;SDS011;5161;48.174;11.756;2023-11-21T04:19:14;2.37;;;1.63;;
10232;SDS011;5161;48.174;11.756;2023-11-21T04:21:40;2.47;;;1.80;;
10232;SDS011;5161;48.174;11.756;2023-11-21T04:24:06;2.77;;;1.70;;
10232;SDS011;5161;48.174;11.756;2023-11-21T04:26:32;4.47;;;1.60;;
10232;SDS011;5161;48.174;11.756;2023-11-21T04:28:57;3.53;;;1.70;;
10232;SDS011;5161;48.174;11.756;2023-11-21T04:31:23;3.73;;;1.77;;
10232;SDS011;5161;48.174;11.756;2023-11-21T04:33:49;3.50;;;1.70;;
10232;SDS011;5161;48.174;11.756;2023-11-21T04:36:14;2.10;;;1.30;;
10232;SDS011;5161;48.174;11.756;2023-11-21T04:38:40;2.77;;;1.57;;
10232;SDS011;5161;48.174;11.756;2023-11-21T04:41:06;2.47;;;1.83;;
10232;SDS011;5161;48.174;11.756;2023-11-21T04:43:31;3.20;;;1.70;;
10232;SDS011;5161;48.174;11.756;2023-11-21T04:45:57;3.80;;;1.50;;
10232;SDS011;5161;48.174;11.756;2023-11-21T04:48:23;2.63;;;1.43;;
10232;SDS011;5161;48.174;11.756;2023-11-21T04:50:48;3.73;;;1.70;;
10232;SDS011;5161;48.174;11.756;2023-11-21T04:53:14;4.03;;;1.47;;
10232;SDS011;5161;48.174;11.756;2023-11-21T04:55:42;2.73;;;1.40;;
10232;SDS011;5161;48.174;11.756;2023-11-21T04:58:08;2.77;;;1.50;;
10232;SDS011;5161;48.174;11.756;2023-11-21T05:00:33;2.43;;;1.40;;
10232;SDS011;5161;48.174;11.756;2023-11-21T05:02:59;2.50;;;1.30;;
10232;SDS011;5161;48.174;11.756;2023-11-21T05:05:26;2.60;;;1.40;;
10232;SDS011;5161;48.174;11.756;2023-11-21T05:07:52;2.53;;;1.40;;
10232;SDS011;5161;48.174;11.756;2023-11-21T05:10:18;1.53;;;1.40;;
10232;SDS011;5161;48.174;11.756;2023-11-21T05:12:44;2.13;;;1.20;;
10232;SDS011;5161;48.174;11.756;2023-11-21T05:15:13;4.90;;;1.53;;
10232;SDS011;5161;48.174;11.756;2023-11-21T05:17:40;3.13;;;1.50;;
10232;SDS011;5161;48.174;11.756;2023-11-21T05:20:15;1.83;;;1.40;;
10232;SDS011;5161;48.174;11.756;2023-11-21T05:22:46;1.23;;;1.10;;
10232;SDS011;5161;48.174;11.756;2023-11-21T05:25:13;3.50;;;1.30;;
10232;SDS011;5161;48.174;11.756;2023-11-21T05:27:39;1.53;;;1.20;;
10232;SDS011;5161;48.174;11.756;2023-11-21T05:30:05;2.60;;;1.30;;
10232;SDS011;5161;48.174;11.756;2023-11-21T05:32:31;2.23;;;1.20;;
10232;SDS011;5161;48.174;11.756;2023-11-21T05:34:58;1.37;;;1.07;;
10232;SDS011;5161;48.174;11.756;2023-11-21T05:37:24;1.40;;;1.30;;
10232;SDS011;5161;48.174;11.756;2023-11-21T05:39:51;1.77;;;1.20;;
10232;SDS011;5161;48.174;11.756;2023-11-21T05:42:17;2.33;;;1.30;;
10232;SDS011;5161;48.174;11.756;2023-11-21T05:44:43;2.67;;;1.80;;
10232;SDS011;5161;48.174;11.756;2023-11-21T05:47:09;3.60;;;1.50;;
10232;SDS011;5161;48.174;11.756;2023-11-21T05:49:35;2.50;;;1.63;;
10232;SDS011;5161;48.174;11.756;2023-11-21T05:52:01;3.87;;;1.50;;
10232;SDS011;5161;48.174;11.756;2023-11-21T05:54:27;2.27;;;1.40;;
10232;SDS011;5161;48.174;11.756;2023-11-21T05:56:53;1.40;;;1.30;;
10232;SDS011;5161;48.174;11.756;2023-11-21T05:59:19;3.20;;;1.20;;
10232;SDS011;5161;48.174;11.756;2023-11-21T06:01:45;3.60;;;1.40;;
10232;SDS011;5161;48.174;11.756;2023-11-21T06:04:11;1.47;;;1.20;;
10232;SDS011;5161;48.174;11.756;2023-11-21T06:06:37;3.43;;;1.50;;
10232;SDS011;5161;48.174;11.756;2023-11-21T06:09:03;1.90;;;1.40;;
10232;SDS011;5161;48.174;11.756;2023-11-21T06:11:30;1.50;;;1.40;;
10232;SDS011;5161;48.174;11.756;2023-11-21T06:13:56;2.67;;;1.30;;
10232;SDS011;5161;48.174;11.756;2023-11-21T06:16:22;1.77;;;1.10;;
10232;SDS011;5161;48.174;11.756;2023-11-21T06:18:49;1.57;;;1.20;;
10232;SDS011;5161;48.174;11.756;2023-11-21T06:21:14;1.40;;;1.30;;
10232;SDS011;5161;48.174;11.756;2023-11-21T06:23:41;2.13;;;1.30;;
10232;SDS011;5161;48.174;11.756;2023-11-21T06:26:07;2.07;;;1.60;;
10232;SDS011;5161;48.174;11.756;2023-11-21T06:28:34;2.73;;;1.60;;
10232;SDS011;5161;48.174;11.756;2023-11-21T06:31:01;1.73;;;1.40;;
10232;SDS011;5161;48.174;11.756;2023-11-21T06:33:32;2.33;;;1.40;;
10232;SDS011;5161;48.174;11.756;2023-11-21T06:35:58;1.67;;;1.40;;
10232;SDS011;5161;48.174;11.756;2023-11-21T06:38:27;3.80;;;1.50;;
10232;SDS011;5161;48.174;11.756;2023-11-21T06:40:55;1.60;;;1.50;;
10232;SDS011;5161;48.174;11.756;2023-11-21T06:43:21;3.27;;;1.50;;
10232;SDS011;5161;48.174;11.756;2023-11-21T06:45:47;1.40;;;1.30;;
10232;SDS011;5161;48.174;11.756;2023-11-21T06:48:12;1.27;;;1.20;;
10232;SDS011;5161;48.174;11.756;2023-11-21T06:50:38;1.23;;;1.23;;
10232;SDS011;5161;48.174;11.756;2023-11-21T06:53:03;1.30;;;1.20;;
10232;SDS011;5161;48.174;11.756;2023-11-21T06:55:31;1.43;;;1.33;;
10232;SDS011;5161;48.174;11.756;2023-11-21T06:57:57;1.23;;;1.23;;
10232;SDS011;5161;48.174;11.756;2023-11-21T07:00:25;1.30;;;1.07;;
10232;SDS011;5161;48.174;11.756;2023-11-21T07:02:50;1.43;;;1.10;;
10232;SDS011;5161;48.174;11.756;2023-11-21T07:05:16;3.50;;;1.40;;
10232;SDS011;5161;48.174;11.756;2023-11-21T07:07:45;1.50;;;1.23;;
10232;SDS011;5161;48.174;11.756;2023-11-21T07:10:11;1.20;;;1.20;;
10232;SDS011;5161;48.174;11.756;2023-11-21T07:12:37;1.30;;;1.20;;
10232;SDS011;5161;48.174;11.756;2023-11-21T07:15:03;1.10;;;1.07;;
10232;SDS011;5161;48.174;11.756;2023-11-21T07:17:32;1.20;;;1.10;;
10232;SDS011;5161;48.174;11.756;2023-11-21T07:19:57;2.43;;;1.30;;
10232;SDS011;5161;48.174;11.756;2023-11-21T07:22:23;2.40;;;1.40;;
10232;SDS011;5161;48.174;11.756;2023-11-21T07:24:49;1.27;;;1.27;;
10232;SDS011;5161;48.174;11.756;2023-11-21T07:27:15;1.30;;;1.20;;
10232;SDS011;5161;48.174;11.756;2023-11-21T07:29:41;1.33;;;1.23;;
10232;SDS011;5161;48.174;11.756;2023-11-21T07:32:07;2.00;;;1.30;;
10232;SDS011;5161;48.174;11.756;2023-11-21T07:34:34;1.20;;;1.10;;
10232;SDS011;5161;48.174;11.756;2023-11-21T07:37:01;1.50;;;1.23;;
10232;SDS011;5161;48.174;11.756;2023-11-21T07:39:26;2.60;;;2.40;;
10232;SDS011;5161;48.174;11.756;2023-11-21T07:41:52;2.10;;;1.70;;
10232;SDS011;5161;48.174;11.756;2023-11-21T07:44:18;2.43;;;1.40;;
10232;SDS011;5161;48.174;11.756;2023-11-21T07:46:44;2.33;;;1.30;;
10232;SDS011;5161;48.174;11.756;2023-11-21T07:49:10;1.60;;;1.50;;
10232;SDS011;5161;48.174;11.756;2023-11-21T07:51:36;1.57;;;1.20;;
10232;SDS011;5161;48.174;11.756;2023-11-21T07:54:02;1.60;;;1.00;;
10232;SDS011;5161;48.174;11.756;2023-11-21T07:56:27;1.97;;;1.20;;
10232;SDS011;5161;48.174;11.756;2023-11-21T07:58:53;1.20;;;1.10;;
10232;SDS011;5161;48.174;11.756;2023-11-21T08:01:19;1.27;;;1.23;;
10232;SDS011;5161;48.174;11.756;2023-11-21T08:03:44;1.30;;;1.30;;
10232;SDS011;5161;48.174;11.756;2023-11-21T08:06:10;1.30;;;1.30;;
10232;SDS011;5161;48.174;11.756;2023-11-21T08:08:37;1.43;;;1.20;;
10232;SDS011;5161;48.174;11.756;2023-11-21T08:11:02;1.40;;;1.30;;
10232;SDS011;5161;48.174;11.756;2023-11-21T08:13:28;1.67;;;1.30;;
10232;SDS011;5161;48.174;11.756;2023-11-21T08:15:57;2.77;;;1.40;;
10232;SDS011;5161;48.174;11.756;2023-11-21T08:18:30;1.50;;;1.40;;
10232;SDS011;5161;48.174;11.756;2023-11-21T08:20:56;1.57;;;1.30;;
10232;SDS011;5161;48.174;11.756;2023-11-21T08:23:22;1.37;;;1.30;;
10232;SDS011;5161;48.174;11.756;2023-11-21T08:25:50;3.80;;;1.30;;
10232;SDS011;5161;48.174;11.756;2023-11-21T08:28:19;2.37;;;1.40;;
10232;SDS011;5161;48.174;11.756;2023-11-21T08:30:47;1.50;;;1.33;;
10232;SDS011;5161;48.174;11.756;2023-11-21T08:33:13;3.10;;;1.30;;
10232;SDS011;5161;48.174;11.756;2023-11-21T08:35:39;3.37;;;1.60;;
10232;SDS011;5161;48.174;11.756;2023-11-21T08:38:04;2.20;;;1.60;;
10232;SDS011;5161;48.174;11.756;2023-11-21T08:40:30;3.67;;;2.00;;
10232;SDS011;5161;48.174;11.756;2023-11-21T08:42:56;3.40;;;1.90;;
10232;SDS011;5161;48.174;11.756;2023-11-21T08:45:23;2.00;;;1.80;;
10232;SDS011;5161;48.174;11.756;2023-11-21T08:47:50;2.30;;;1.80;;
10232;SDS011;5161;48.174;11.756;2023-11-21T08:50:16;1.77;;;1.40;;
10232;SDS011;5161;48.174;11.756;2023-11-21T08:52:42;2.10;;;1.50;;
10232;SDS011;5161;48.174;11.756;2023-11-21T08:55:09;3.90;;;1.80;;
10232;SDS011;5161;48.174;11.756;2023-11-21T08:57:37;2.93;;;1.30;;
10232;SDS011;5161;48.174;11.756;2023-11-21T09:00:05;4.57;;;2.73;;
10232;SDS011;5161;48.174;11.756;2023-11-21T09:02:32;5.57;;;2.30;;
10232;SDS011;5161;48.174;11.756;2023-11-21T09:05:02;4.23;;;2.50;;
10232;SDS011;5161;48.174;11.756;2023-11-21T09:07:29;3.73;;;2.43;;
10232;SDS011;5161;48.174;11.756;2023-11-21T09:09:55;7.97;;;3.30;;
10232;SDS011;5161;48.174;11.756;2023-11-21T09:12:20;2.10;;;2.00;;
10232;SDS011;5161;48.174;11.756;2023-11-21T09:14:46;2.03;;;1.93;;
10232;SDS011;5161;48.174;11.756;2023-11-21T09:17:12;3.30;;;2.03;;
10232;SDS011;5161;48.174;11.756;2023-11-21T09:19:39;2.70;;;1.87;;
10232;SDS011;5161;48.174;11.756;2023-11-21T09:22:05;4.77;;;1.97;;
10232;SDS011;5161;48.174;11.756;2023-11-21T09:24:31;4.53;;;1.80;;
10232;SDS011;5161;48.174;11.756;2023-11-21T09:26:58;1.90;;;1.80;;
10232;SDS011;5161;48.174;11.756;2023-11-21T09:29:24;1.93;;;1.77;;
10232;SDS011;5161;48.174;11.756;2023-11-21T09:31:51;6.83;;;1.67;;
10232;SDS011;5161;48.174;11.756;2023-11-21T09:34:16;4.43;;;2.10;;
10232;SDS011;5161;48.174;11.756;2023-11-21T09:36:46;4.03;;;2.13;;
10232;SDS011;5161;48.174;11.756;2023-11-21T09:39:12;3.00;;;2.40;;
10232;SDS011;5161;48.174;11.756;2023-11-21T09:41:52;2.90;;;2.50;;
10232;SDS011;5161;48.174;11.756;2023-11-21T09:44:28;4.30;;;1.97;;
10232;SDS011;5161;48.174;11.756;2023-11-21T09:46:59;1.70;;;1.60;;
10232;SDS011;5161;48.174;11.756;2023-11-21T09:49:25;2.80;;;2.00;;
10232;SDS011;5161;48.174;11.756;2023-11-21T09:51:53;2.20;;;2.00;;
10232;SDS011;5161;48.174;11.756;2023-11-21T09:54:21;2.87;;;1.73;;
10232;SDS011;5161;48.174;11.756;2023-11-21T09:56:47;3.33;;;2.00;;
10232;SDS011;5161;48.174;11.756;2023-11-21T09:59:13;5.90;;;1.83;;
10232;SDS011;5161;48.174;11.756;2023-11-21T10:01:40;3.57;;;2.20;;
10232;SDS011;5161;48.174;11.756;2023-11-21T10:04:07;2.23;;;1.90;;
10232;SDS011;5161;48.174;11.756;2023-11-21T10:06:38;1.90;;;1.80;;
10232;SDS011;5161;48.174;11.756;2023-11-21T10:09:06;3.07;;;1.77;;
10232;SDS011;5161;48.174;11.756;2023-11-21T10:11:40;4.63;;;1.93;;
10232;SDS011;5161;48.174;11.756;2023-11-21T10:14:07;1.97;;;1.87;;
10232;SDS011;5161;48.174;11.756;2023-11-21T10:16:35;2.97;;;1.83;;
10232;SDS011;5161;48.174;11.756;2023-11-21T10:19:04;3.50;;;1.90;;
10232;SDS011;5161;48.174;11.756;2023-11-21T10:21:32;2.87;;;1.77;;
10232;SDS011;5161;48.174;11.756;2023-11-21T10:23:58;4.03;;;1.80;;
10232;SDS011;5161;48.174;11.756;2023-11-21T10:26:24;2.27;;;2.07;;
10232;SDS011;5161;48.174;11.756;2023-11-21T10:28:57;4.13;;;2.00;;
10232;SDS011;5161;48.174;11.756;2023-11-21T10:31:24;3.63;;;2.10;;
10232;SDS011;5161;48.174;11.756;2023-11-21T10:33:53;5.87;;;2.10;;
10232;SDS011;5161;48.174;11.756;2023-11-21T10:36:25;3.17;;;1.73;;
10232;SDS011;5161;48.174;11.756;2023-11-21T10:38:52;3.30;;;1.50;;
10232;SDS011;5161;48.174;11.756;2023-11-21T10:41:18;2.53;;;1.47;;
10232;SDS011;5161;48.174;11.756;2023-11-21T10:43:45;2.87;;;1.40;;
10232;SDS011;5161;48.174;11.756;2023-11-21T10:46:10;3.03;;;1.40;;
10232;SDS011;5161;48.174;11.756;2023-11-21T10:48:36;2.70;;;1.50;;
10232;SDS011;5161;48.174;11.756;2023-11-21T10:51:06;3.53;;;1.80;;
10232;SDS011;5161;48.174;11.756;2023-11-21T10:53:32;1.67;;;1.57;;
10232;SDS011;5161;48.174;11.756;2023-11-21T10:56:05;2.50;;;1.60;;
10232;SDS011;5161;48.174;11.756;2023-11-21T10:58:32;3.27;;;1.87;;
10232;SDS011;5161;48.174;11.756;2023-11-21T11:01:00;2.00;;;1.73;;
10232;SDS011;5161;48.174;11.756;2023-11-21T11:03:28;6.07;;;2.30;;
10232;SDS011;5161;48.174;11.756;2023-11-21T11:05:58;5.33;;;2.00;;
10232;SDS011;5161;48.174;11.756;2023-11-21T11:08:24;5.17;;;1.70;;
10232;SDS011;5161;48.174;11.756;2023-11-21T11:10:52;2.10;;;1.70;;
10232;SDS011;5161;48.174;11.756;2023-11-21T11:13:18;3.07;;;1.50;;
10232;SDS011;5161;48.174;11.756;2023-11-21T11:15:47;2.03;;;1.60;;
10232;SDS011;5161;48.174;11.756;2023-11-21T11:18:13;4.43;;;1.80;;
10232;SDS011;5161;48.174;11.756;2023-11-21T11:20:40;4.00;;;1.80;;
10232;SDS011;5161;48.174;11.756;2023-11-21T11:26:07;1.93;;;1.83;;
10232;SDS011;5161;48.174;11.756;2023-11-21T11:28:47;1.60;;;1.50;;
10232;SDS011;5161;48.174;11.756;2023-11-21T11:31:40;7.03;;;1.90;;
10232;SDS011;5161;48.174;11.756;2023-11-21T11:37:21;3.23;;;1.60;;
10232;SDS011;5161;48.174;11.756;2023-11-21T11:39:48;4.93;;;1.60;;
10232;SDS011;5161;48.174;11.756;2023-11-21T11:42:15;1.50;;;1.40;;
10232;SDS011;5161;48.174;11.756;2023-11-21T11:47:30;1.53;;;1.20;;
10232;SDS011;5161;48.174;11.756;2023-11-21T11:50:03;2.50;;;1.40;;
10232;SDS011;5161;48.174;11.756;2023-11-21T11:52:42;1.70;;;1.60;;
10232;SDS011;5161;48.174;11.756;2023-11-21T11:55:15;1.67;;;1.57;;
10232;SDS011;5161;48.174;11.756;2023-11-21T11:57:46;4.23;;;1.70;;
10232;SDS011;5161;48.174;11.756;2023-11-21T12:00:22;1.77;;;1.40;;
10232;SDS011;5161;48.174;11.756;2023-11-21T12:03:10;1.63;;;1.53;;
10232;SDS011;5161;48.174;11.756;2023-11-21T12:05:35;1.97;;;1.30;;
10232;SDS011;5161;48.174;11.756;2023-11-21T12:08:04;5.07;;;1.60;;
10232;SDS011;5161;48.174;11.756;2023-11-21T12:10:32;4.10;;;1.57;;
10232;SDS011;5161;48.174;11.756;2023-11-21T12:13:08;4.60;;;2.23;;
10232;SDS011;5161;48.174;11.756;2023-11-21T12:15:36;8.43;;;2.70;;
10232;SDS011;5161;48.174;11.756;2023-11-21T12:18:03;2.20;;;1.67;;
10232;SDS011;5161;48.174;11.756;2023-11-21T12:20:29;4.70;;;2.23;;
10232;SDS011;5161;48.174;11.756;2023-11-21T12:22:59;2.90;;;1.53;;
10232;SDS011;5161;48.174;11.756;2023-11-21T12:25:29;1.83;;;1.53;;
10232;SDS011;5161;48.174;11.756;2023-11-21T12:27:57;1.80;;;1.70;;
10232;SDS011;5161;48.174;11.756;2023-11-21T12:30:25;4.20;;;1.40;;
10232;SDS011;5161;48.174;11.756;2023-11-21T12:32:56;2.10;;;1.40;;
10232;SDS011;5161;48.174;11.756;2023-11-21T12:35:24;4.93;;;1.90;;
10232;SDS011;5161;48.174;11.756;2023-11-21T12:37:51;5.37;;;1.50;;
10232;SDS011;5161;48.174;11.756;2023-11-21T12:40:18;4.53;;;3.10;;
10232;SDS011;5161;48.174;11.756;2023-11-21T12:42:45;3.67;;;2.70;;
10232;SDS011;5161;48.174;11.756;2023-11-21T12:47:52;4.90;;;1.97;;
10232;SDS011;5161;48.174;11.756;2023-11-21T12:50:21;6.63;;;2.30;;
10232;SDS011;5161;48.174;11.756;2023-11-21T12:52:54;3.37;;;1.87;;
10232;SDS011;5161;48.174;11.756;2023-11-21T12:55:23;5.00;;;1.97;;
10232;SDS011;5161;48.174;11.756;2023-11-21T12:57:51;1.60;;;1.50;;
10232;SDS011;5161;48.174;11.756;2023-11-21T13:00:31;1.90;;;1.40;;
10232;SDS011;5161;48.174;11.756;2023-11-21T13:02:58;3.90;;;1.40;;
10232;SDS011;5161;48.174;11.756;2023-11-21T13:05:25;5.63;;;1.90;;
10232;SDS011;5161;48.174;11.756;2023-11-21T13:07:56;5.10;;;1.83;;
10232;SDS011;5161;48.174;11.756;2023-11-21T13:10:24;4.07;;;1.63;;
10232;SDS011;5161;48.174;11.756;2023-11-21T13:12:54;4.73;;;2.60;;
10232;SDS011;5161;48.174;11.756;2023-11-21T13:15:23;1.83;;;1.73;;
10232;SDS011;5161;48.174;11.756;2023-11-21T13:17:49;1.60;;;1.47;;
10232;SDS011;5161;48.174;11.756;2023-11-21T13:20:16;5.20;;;3.47;;
10232;SDS011;5161;48.174;11.756;2023-11-21T13:22:52;3.50;;;3.20;;
10232;SDS011;5161;48.174;11.756;2023-11-21T13:25:24;3.57;;;3.27;;
10232;SDS011;5161;48.174;11.756;2023-11-21T13:27:59;2.70;;;1.60;;
10232;SDS011;5161;48.174;11.756;2023-11-21T13:30:28;6.83;;;2.87;;
10232;SDS011;5161;48.174;11.756;2023-11-21T13:33:01;19.93;;;11.30;;
10232;SDS011;5161;48.174;11.756;2023-11-21T13:35:31;23.07;;;19.27;;
10232;SDS011;5161;48.174;11.756;2023-11-21T13:38:07;37.37;;;29.87;;
10232;SDS011;5161;48.174;11.756;2023-11-21T13:40:35;40.03;;;35.63;;
10232;SDS011;5161;48.174;11.756;2023-11-21T13:43:15;21.17;;;19.13;;
10232;SDS011;5161;48.174;11.756;2023-11-21T13:45:45;22.13;;;20.23;;
10232;SDS011;5161;48.174;11.756;2023-11-21T13:48:13;16.37;;;14.97;;
10232;SDS011;5161;48.174;11.756;2023-11-21T13:50:42;24.93;;;22.43;;
10232;SDS011;5161;48.174;11.756;2023-11-21T13:53:34;27.50;;;24.60;;
10232;SDS011;5161;48.174;11.756;2023-11-21T13:56:02;30.10;;;26.97;;
10232;SDS011;5161;48.174;11.756;2023-11-21T13:58:28;19.30;;;17.30;;
10232;SDS011;5161;48.174;11.756;2023-11-21T14:01:10;28.53;;;25.53;;
10232;SDS011;5161;48.174;11.756;2023-11-21T14:04:02;42.83;;;37.97;;
10232;SDS011;5161;48.174;11.756;2023-11-21T14:06:40;8.27;;;7.47;;
10232;SDS011;5161;48.174;11.756;2023-11-21T14:09:13;8.87;;;8.07;;
10232;SDS011;5161;48.174;11.756;2023-11-21T14:12:00;3.13;;;2.93;;
10232;SDS011;5161;48.174;11.756;2023-11-21T14:14:30;1.83;;;1.73;;
10232;SDS011;5161;48.174;11.756;2023-11-21T14:16:56;1.37;;;1.27;;
10232;SDS011;5161;48.174;11.756;2023-11-21T14:19:23;1.30;;;1.30;;
10232;SDS011;5161;48.174;11.756;2023-11-21T14:21:53;2.97;;;1.37;;
10232;SDS011;5161;48.174;11.756;2023-11-21T14:24:19;1.10;;;1.10;;
10232;SDS011;5161;48.174;11.756;2023-11-21T14:26:45;1.40;;;1.00;;
10232;SDS011;5161;48.174;11.756;2023-11-21T14:29:12;1.30;;;1.20;;
10232;SDS011;5161;48.174;11.756;2023-11-21T14:31:39;2.80;;;2.60;;
10232;SDS011;5161;48.174;11.756;2023-11-21T14:34:06;11.47;;;9.30;;
10232;SDS011;5161;48.174;11.756;2023-11-21T14:36:33;8.80;;;7.60;;
10232;SDS011;5161;48.174;11.756;2023-11-21T14:38:59;14.63;;;13.03;;
10232;SDS011;5161;48.174;11.756;2023-11-21T14:41:24;5.47;;;4.67;;
10232;SDS011;5161;48.174;11.756;2023-11-21T14:43:54;3.97;;;2.80;;
10232;SDS011;5161;48.174;11.756;2023-11-21T14:46:20;3.47;;;3.27;;
10232;SDS011;5161;48.174;11.756;2023-11-21T14:48:46;3.33;;;2.43;;
10232;SDS011;5161;48.174;11.756;2023-11-21T14:51:31;1.70;;;1.60;;
10232;SDS011;5161;48.174;11.756;2023-11-21T14:53:58;2.10;;;1.70;;
10232;SDS011;5161;48.174;11.756;2023-11-21T14:56:33;1.60;;;1.50;;
10232;SDS011;5161;48.174;11.756;2023-11-21T14:59:00;1.87;;;1.77;;
10232;SDS011;5161;48.174;11.756;2023-11-21T15:01:41;1.60;;;1.50;;